Time;durP1;ratioP1;P1;durP2;ratioP2;P2;SDS_P1;SDS_P2;PMS_P1;PMS_P2;Temp;Humidity;BMP_temperature;BMP_pressure;BME280_temperature;BME280_humidity;BME280_pressure;Samples;Min_cycle;Max_cycle;Signal;HPM_P1;HPM_P2
2023/09/06 00:02:00;;;;;;;9.02;5.88;;;;;;;;;;5046094;28;20034;-75
2023/09/06 00:04:26;;;;;;;12.68;7.03;;;;;;;;;;5045899;28;20026;-76
2023/09/06 00:06:52;;;;;;;8.57;5.60;;;;;;;;;;5012463;28;20121;-76
2023/09/06 00:09:18;;;;;;;11.40;6.03;;;;;;;;;;5012072;28;20427;-75
2023/09/06 00:11:43;;;;;;;10.95;6.70;;;;;;;;;;5045835;28;20026;-75
2023/09/06 00:14:08;;;;;;;9.63;6.22;;;;;;;;;;5045850;28;20029;-76
2023/09/06 00:16:34;;;;;;;9.13;5.82;;;;;;;;;;5045886;28;20030;-75
2023/09/06 00:19:00;;;;;;;12.02;6.20;;;;;;;;;;5044659;28;20050;-76
2023/09/06 00:21:26;;;;;;;7.38;5.45;;;;;;;;;;5012730;28;20025;-75
2023/09/06 00:23:52;;;;;;;9.50;6.13;;;;;;;;;;5013718;28;20025;-76
2023/09/06 00:26:17;;;;;;;9.10;5.40;;;;;;;;;;5013750;28;20491;-75
2023/09/06 00:28:42;;;;;;;9.43;6.13;;;;;;;;;;5013869;28;20095;-75
2023/09/06 00:31:07;;;;;;;12.15;7.43;;;;;;;;;;5045428;28;20030;-76
2023/09/06 00:33:35;;;;;;;13.35;7.30;;;;;;;;;;5013658;28;20026;-75
2023/09/06 00:36:02;;;;;;;11.20;6.90;;;;;;;;;;5044982;28;20030;-75
2023/09/06 00:38:28;;;;;;;12.98;6.72;;;;;;;;;;5045541;28;20058;-76
2023/09/06 00:40:54;;;;;;;9.60;6.22;;;;;;;;;;5045192;28;20440;-75
2023/09/06 00:43:19;;;;;;;12.77;6.25;;;;;;;;;;5045633;28;20075;-75
2023/09/06 00:45:48;;;;;;;11.63;7.05;;;;;;;;;;5013196;28;20026;-75
2023/09/06 00:48:16;;;;;;;10.65;6.40;;;;;;;;;;5045167;28;20036;-76
2023/09/06 00:50:42;;;;;;;12.98;8.30;;;;;;;;;;5045238;28;20026;-76
2023/09/06 00:53:08;;;;;;;14.50;9.00;;;;;;;;;;5015146;28;20037;-75
2023/09/06 00:55:34;;;;;;;14.77;9.30;;;;;;;;;;5031644;28;20041;-76
2023/09/06 00:58:00;;;;;;;16.33;9.93;;;;;;;;;;5016283;28;20022;-75
2023/09/06 01:00:25;;;;;;;15.38;8.73;;;;;;;;;;5048777;28;20033;-76
2023/09/06 01:02:51;;;;;;;15.15;9.05;;;;;;;;;;5016101;28;20056;-75
2023/09/06 01:05:17;;;;;;;21.02;11.32;;;;;;;;;;5049051;28;20531;-75
2023/09/06 01:07:50;;;;;;;14.35;8.68;;;;;;;;;;5032326;28;20034;-76
2023/09/06 01:10:15;;;;;;;12.30;8.15;;;;;;;;;;5043972;28;20539;-75
2023/09/06 01:12:41;;;;;;;13.13;7.93;;;;;;;;;;5029345;28;20034;-75
2023/09/06 01:15:06;;;;;;;15.77;9.52;;;;;;;;;;4997785;28;20022;-75
2023/09/06 01:17:35;;;;;;;14.23;8.65;;;;;;;;;;5029135;28;20532;-75
2023/09/06 01:20:14;;;;;;;14.30;8.40;;;;;;;;;;5028326;28;20026;-76
2023/09/06 01:22:43;;;;;;;13.23;7.90;;;;;;;;;;4997540;28;20046;-75
2023/09/06 01:25:09;;;;;;;13.35;7.82;;;;;;;;;;5012382;28;20397;-75
2023/09/06 01:27:34;;;;;;;13.38;7.75;;;;;;;;;;5012370;28;20033;-75
2023/09/06 01:29:59;;;;;;;13.50;7.35;;;;;;;;;;5028829;28;20109;-75
2023/09/06 01:32:27;;;;;;;12.52;7.57;;;;;;;;;;5028828;28;20030;-75
2023/09/06 01:34:54;;;;;;;13.60;7.93;;;;;;;;;;4996730;28;20038;-75
2023/09/06 01:37:19;;;;;;;11.60;7.00;;;;;;;;;;5012024;28;20027;-75
2023/09/06 01:39:45;;;;;;;12.90;7.72;;;;;;;;;;4995839;28;20027;-75
2023/09/06 01:42:10;;;;;;;13.20;7.93;;;;;;;;;;4995842;28;20092;-75
2023/09/06 01:44:35;;;;;;;11.90;7.55;;;;;;;;;;4997107;28;20109;-75
2023/09/06 01:47:04;;;;;;;14.38;8.07;;;;;;;;;;4996859;28;20081;-75
2023/09/06 01:49:30;;;;;;;12.40;7.28;;;;;;;;;;4995570;28;20045;-76
2023/09/06 01:51:57;;;;;;;12.52;7.20;;;;;;;;;;4997526;28;20102;-75
2023/09/06 01:54:23;;;;;;;13.27;8.57;;;;;;;;;;5028244;28;20026;-75
2023/09/06 01:56:48;;;;;;;12.52;7.60;;;;;;;;;;4996884;28;20033;-75
2023/09/06 01:59:13;;;;;;;9.43;6.57;;;;;;;;;;4995923;28;20110;-75
2023/09/06 02:01:39;;;;;;;11.68;7.38;;;;;;;;;;4997036;28;20053;-75
2023/09/06 02:04:05;;;;;;;14.10;7.97;;;;;;;;;;5029088;28;20472;-75
2023/09/06 02:06:31;;;;;;;11.05;6.88;;;;;;;;;;4997503;28;20499;-75
2023/09/06 02:08:56;;;;;;;13.35;7.43;;;;;;;;;;5027838;28;20030;-76
2023/09/06 02:11:21;;;;;;;11.52;7.03;;;;;;;;;;4996460;28;20026;-76
2023/09/06 02:13:47;;;;;;;12.13;8.02;;;;;;;;;;5028229;28;20019;-75
2023/09/06 02:16:12;;;;;;;12.63;8.00;;;;;;;;;;4996493;28;20484;-75
2023/09/06 02:18:37;;;;;;;12.07;7.53;;;;;;;;;;5011223;28;20035;-75
2023/09/06 02:21:04;;;;;;;13.25;7.47;;;;;;;;;;4995094;28;20057;-75
2023/09/06 02:23:30;;;;;;;13.68;8.93;;;;;;;;;;4995980;28;20033;-75
2023/09/06 02:25:56;;;;;;;11.48;6.63;;;;;;;;;;5027628;28;20026;-75
2023/09/06 02:28:21;;;;;;;12.45;7.43;;;;;;;;;;4996255;28;20102;-75
2023/09/06 02:30:47;;;;;;;9.73;6.43;;;;;;;;;;4994976;28;20052;-75
2023/09/06 02:33:14;;;;;;;12.70;8.27;;;;;;;;;;4994954;28;20093;-75
2023/09/06 02:35:44;;;;;;;12.30;7.60;;;;;;;;;;4995967;28;20065;-75
2023/09/06 02:38:10;;;;;;;10.55;7.47;;;;;;;;;;4994390;28;20022;-75
2023/09/06 02:40:36;;;;;;;11.13;7.50;;;;;;;;;;4994703;28;20019;-75
2023/09/06 02:43:02;;;;;;;17.13;11.02;;;;;;;;;;5027651;28;20029;-75
2023/09/06 02:45:36;;;;;;;15.25;9.27;;;;;;;;;;5010440;28;20025;-75
2023/09/06 02:48:06;;;;;;;15.05;8.30;;;;;;;;;;5024116;28;20510;-75
2023/09/06 02:50:34;;;;;;;14.07;9.05;;;;;;;;;;5040657;28;20057;-75
2023/09/06 02:53:01;;;;;;;14.35;9.95;;;;;;;;;;4993980;28;20034;-76
2023/09/06 02:55:27;;;;;;;18.08;11.27;;;;;;;;;;4978079;28;20022;-75
2023/09/06 02:57:52;;;;;;;15.07;8.98;;;;;;;;;;5034175;28;20041;-75
2023/09/06 03:00:28;;;;;;;13.15;9.38;;;;;;;;;;5045448;28;20447;-76
2023/09/06 03:03:04;;;;;;;14.65;8.88;;;;;;;;;;5028532;28;20083;-75
2023/09/06 03:05:41;;;;;;;13.10;8.02;;;;;;;;;;5045411;28;20083;-75
2023/09/06 03:08:07;;;;;;;12.40;7.22;;;;;;;;;;5021586;28;20030;-76
2023/09/06 03:10:33;;;;;;;14.02;7.85;;;;;;;;;;5014517;28;20535;-75
2023/09/06 03:12:58;;;;;;;9.73;6.78;;;;;;;;;;5013466;28;20029;-75
2023/09/06 03:15:33;;;;;;;11.82;7.65;;;;;;;;;;5013218;28;20076;-75
2023/09/06 03:17:59;;;;;;;10.68;7.47;;;;;;;;;;5044636;28;20514;-75
2023/09/06 03:20:33;;;;;;;13.95;9.13;;;;;;;;;;5012453;28;20058;-75
2023/09/06 03:23:09;;;;;;;11.70;7.40;;;;;;;;;;5013166;28;20022;-76
2023/09/06 03:25:40;;;;;;;18.00;10.32;;;;;;;;;;5045623;28;20417;-75
2023/09/06 03:28:05;;;;;;;16.23;9.60;;;;;;;;;;5013669;28;20114;-76
2023/09/06 03:30:30;;;;;;;15.77;9.25;;;;;;;;;;5012627;28;20021;-75
2023/09/06 03:32:58;;;;;;;14.93;9.93;;;;;;;;;;5046180;28;20446;-76
2023/09/06 03:35:23;;;;;;;14.77;9.30;;;;;;;;;;5013900;28;20026;-75
2023/09/06 03:37:49;;;;;;;19.13;10.90;;;;;;;;;;5012780;28;20100;-75
2023/09/06 03:40:25;;;;;;;16.23;9.63;;;;;;;;;;5045528;28;20022;-76
2023/09/06 03:42:54;;;;;;;16.65;9.90;;;;;;;;;;5043952;28;20057;-75
2023/09/06 03:45:24;;;;;;;14.95;9.98;;;;;;;;;;5013044;28;20026;-75
2023/09/06 03:47:51;;;;;;;15.00;9.02;;;;;;;;;;5014095;28;20052;-75
2023/09/06 03:50:17;;;;;;;20.17;11.95;;;;;;;;;;5045516;28;20022;-75
2023/09/06 03:52:45;;;;;;;19.17;10.02;;;;;;;;;;5014117;28;20533;-75
2023/09/06 03:55:11;;;;;;;15.38;9.38;;;;;;;;;;5014058;28;20022;-76
2023/09/06 03:57:37;;;;;;;15.70;8.60;;;;;;;;;;5012389;28;20034;-76
2023/09/06 04:02:47;;;;;;;13.60;8.63;;;;;;;;;;5012961;28;20463;-75
2023/09/06 04:05:13;;;;;;;18.02;8.95;;;;;;;;;;5013965;28;20025;-76
2023/09/06 04:07:38;;;;;;;15.82;8.45;;;;;;;;;;5045484;28;20034;-75
2023/09/06 04:10:07;;;;;;;16.40;10.07;;;;;;;;;;5032627;28;20517;-75
2023/09/06 04:12:35;;;;;;;18.20;10.73;;;;;;;;;;5015630;28;20029;-76
2023/09/06 04:15:00;;;;;;;16.13;9.20;;;;;;;;;;5045194;28;20018;-76
2023/09/06 04:17:27;;;;;;;21.52;11.60;;;;;;;;;;5012201;28;20028;-75
2023/09/06 04:19:54;;;;;;;17.23;10.15;;;;;;;;;;5013687;28;20141;-76
2023/09/06 04:22:19;;;;;;;22.00;11.93;;;;;;;;;;5012624;28;20030;-75
2023/09/06 04:24:45;;;;;;;18.95;11.55;;;;;;;;;;5045800;28;20033;-75
2023/09/06 04:27:12;;;;;;;17.95;9.90;;;;;;;;;;5013508;28;20021;-75
2023/09/06 04:29:37;;;;;;;18.77;10.30;;;;;;;;;;5048809;28;20029;-75
2023/09/06 04:32:02;;;;;;;15.93;9.02;;;;;;;;;;5016461;28;20029;-76
2023/09/06 04:34:28;;;;;;;19.02;9.77;;;;;;;;;;5018216;28;20026;-75
2023/09/06 04:36:53;;;;;;;14.90;8.48;;;;;;;;;;5049122;28;20415;-75
2023/09/06 04:39:20;;;;;;;11.85;7.45;;;;;;;;;;5049504;28;20061;-75
2023/09/06 04:41:45;;;;;;;15.82;8.98;;;;;;;;;;5017633;28;20484;-76
2023/09/06 04:44:10;;;;;;;22.27;13.02;;;;;;;;;;5049372;28;20026;-75
2023/09/06 04:46:36;;;;;;;16.70;8.95;;;;;;;;;;5016511;28;20025;-75
2023/09/06 04:49:01;;;;;;;19.30;10.30;;;;;;;;;;5049238;28;20465;-76
2023/09/06 04:51:27;;;;;;;15.50;9.52;;;;;;;;;;5015643;28;20188;-76
2023/09/06 04:53:53;;;;;;;20.60;11.25;;;;;;;;;;5017679;28;20200;-75
2023/09/06 04:56:19;;;;;;;16.30;9.48;;;;;;;;;;5015980;28;20022;-75
2023/09/06 04:58:45;;;;;;;14.75;9.63;;;;;;;;;;5064907;28;20499;-75
2023/09/06 05:01:10;;;;;;;14.23;8.05;;;;;;;;;;5035783;28;20033;-75
2023/09/06 05:03:37;;;;;;;13.43;7.55;;;;;;;;;;5035866;28;20056;-76
2023/09/06 05:06:02;;;;;;;10.50;6.97;;;;;;;;;;5035644;28;20025;-76
2023/09/06 05:08:28;;;;;;;14.88;9.38;;;;;;;;;;5021049;28;20446;-75
2023/09/06 05:10:53;;;;;;;12.93;8.75;;;;;;;;;;5017130;28;20044;-75
2023/09/06 05:13:18;;;;;;;16.67;8.65;;;;;;;;;;5016803;28;20017;-75
2023/09/06 05:15:44;;;;;;;15.73;10.00;;;;;;;;;;5017056;28;20049;-75
2023/09/06 05:18:09;;;;;;;20.42;10.13;;;;;;;;;;5015457;28;20032;-76
2023/09/06 05:20:37;;;;;;;18.48;10.65;;;;;;;;;;5015981;28;20050;-76
2023/09/06 05:23:05;;;;;;;14.32;8.13;;;;;;;;;;5015604;28;20065;-76
2023/09/06 05:25:31;;;;;;;17.15;10.70;;;;;;;;;;5016471;28;20472;-75
2023/09/06 05:27:58;;;;;;;15.90;9.13;;;;;;;;;;5015460;28;20021;-75
2023/09/06 05:30:24;;;;;;;15.82;9.23;;;;;;;;;;5048549;28;20538;-75
2023/09/06 05:32:49;;;;;;;13.48;8.27;;;;;;;;;;5016740;28;20034;-75
2023/09/06 05:35:15;;;;;;;15.15;9.38;;;;;;;;;;5016162;28;20475;-75
2023/09/06 05:37:40;;;;;;;21.25;13.00;;;;;;;;;;5048110;28;20096;-75
2023/09/06 05:40:07;;;;;;;18.63;10.10;;;;;;;;;;5048370;28;20025;-76
2023/09/06 05:42:33;;;;;;;20.63;11.05;;;;;;;;;;5015481;28;20034;-75
2023/09/06 05:44:58;;;;;;;24.48;11.68;;;;;;;;;;5015618;28;20026;-75
2023/09/06 05:47:23;;;;;;;29.50;16.00;;;;;;;;;;5015403;28;20065;-75
2023/09/06 05:49:51;;;;;;;26.90;14.15;;;;;;;;;;5016968;28;20464;-75
2023/09/06 05:52:17;;;;;;;22.63;11.85;;;;;;;;;;4998862;28;20029;-75
2023/09/06 05:54:43;;;;;;;29.85;16.63;;;;;;;;;;5015378;28;20498;-76
2023/09/06 05:57:11;;;;;;;28.88;15.80;;;;;;;;;;5014825;28;20061;-75
2023/09/06 05:59:36;;;;;;;32.95;17.25;;;;;;;;;;5014716;28;20029;-75
2023/09/06 06:22:43;;;;;;;42.35;22.23;;;;;;;;;;5459228;23;20396;-73
2023/09/06 06:25:10;;;;;;;40.00;20.17;;;;;;;;;;5035531;28;20041;-73
2023/09/06 06:27:36;;;;;;;39.88;19.95;;;;;;;;;;5033424;28;20049;-73
2023/09/06 06:30:05;;;;;;;43.08;20.92;;;;;;;;;;5017574;28;20106;-73
2023/09/06 06:32:30;;;;;;;49.42;25.65;;;;;;;;;;5035097;28;20025;-73
2023/09/06 06:35:00;;;;;;;49.80;22.13;;;;;;;;;;5035085;28;20040;-73
2023/09/06 06:37:26;;;;;;;36.90;19.45;;;;;;;;;;5033664;28;20033;-73
2023/09/06 06:39:54;;;;;;;50.17;23.70;;;;;;;;;;5034958;28;20029;-73
2023/09/06 06:42:19;;;;;;;48.15;24.88;;;;;;;;;;5033262;28;20040;-73
2023/09/06 06:44:46;;;;;;;54.85;28.42;;;;;;;;;;5035089;28;20025;-74
2023/09/06 06:47:11;;;;;;;57.60;31.42;;;;;;;;;;5034741;28;20025;-73
2023/09/06 06:49:36;;;;;;;67.57;34.70;;;;;;;;;;5034343;28;20070;-73
2023/09/06 06:52:02;;;;;;;54.15;26.83;;;;;;;;;;5034030;28;20029;-74
2023/09/06 06:54:27;;;;;;;55.80;29.00;;;;;;;;;;5050135;28;20029;-74
2023/09/06 06:56:53;;;;;;;64.00;33.90;;;;;;;;;;5034866;28;20419;-74
2023/09/06 06:59:19;;;;;;;66.20;32.95;;;;;;;;;;5034688;28;20049;-74
2023/09/06 07:01:44;;;;;;;59.05;30.38;;;;;;;;;;5049911;28;20031;-74
2023/09/06 07:04:09;;;;;;;54.10;29.52;;;;;;;;;;5049831;28;20017;-74
2023/09/06 07:06:35;;;;;;;60.90;33.70;;;;;;;;;;5034099;28;20104;-74
2023/09/06 07:09:03;;;;;;;50.28;27.65;;;;;;;;;;5034359;28;20104;-74
2023/09/06 07:11:28;;;;;;;53.53;29.75;;;;;;;;;;5033134;28;20036;-74
2023/09/06 07:13:54;;;;;;;46.35;26.13;;;;;;;;;;5034715;28;20029;-74
2023/09/06 07:16:19;;;;;;;46.40;23.45;;;;;;;;;;5034250;28;20564;-74
2023/09/06 07:18:46;;;;;;;42.90;23.92;;;;;;;;;;5049347;28;20027;-74
2023/09/06 07:21:12;;;;;;;33.05;18.27;;;;;;;;;;5066292;28;20034;-74
2023/09/06 07:23:37;;;;;;;27.20;15.98;;;;;;;;;;5049583;28;20056;-74
2023/09/06 07:26:04;;;;;;;25.30;15.75;;;;;;;;;;5049656;28;20390;-74
2023/09/06 07:28:37;;;;;;;31.95;17.17;;;;;;;;;;5032811;28;20056;-74
2023/09/06 07:31:02;;;;;;;33.97;19.52;;;;;;;;;;5033559;28;20017;-74
2023/09/06 07:33:28;;;;;;;26.83;14.70;;;;;;;;;;5026671;28;20029;-75
2023/09/06 07:35:53;;;;;;;28.08;16.73;;;;;;;;;;5014807;28;20423;-74
2023/09/06 07:38:18;;;;;;;33.88;17.65;;;;;;;;;;5028450;28;20021;-74
2023/09/06 07:40:43;;;;;;;31.20;17.52;;;;;;;;;;5033674;28;20025;-74
2023/09/06 07:43:09;;;;;;;28.88;16.48;;;;;;;;;;5061458;28;20156;-74
2023/09/06 07:45:36;;;;;;;26.65;14.68;;;;;;;;;;5012188;28;20026;-74
2023/09/06 07:48:03;;;;;;;22.75;12.05;;;;;;;;;;4996285;28;20025;-74
2023/09/06 07:50:28;;;;;;;20.27;12.15;;;;;;;;;;5014032;28;20018;-74
2023/09/06 07:52:53;;;;;;;19.40;12.35;;;;;;;;;;5012940;28;20079;-74
2023/09/06 07:55:19;;;;;;;20.98;12.10;;;;;;;;;;5020052;28;20022;-74
2023/09/06 07:57:44;;;;;;;20.98;13.73;;;;;;;;;;5033500;28;20025;-74
2023/09/06 08:00:11;;;;;;;17.98;12.55;;;;;;;;;;5033507;28;20038;-74
2023/09/06 08:02:36;;;;;;;17.63;10.20;;;;;;;;;;5030621;28;20021;-74
2023/09/06 08:05:02;;;;;;;14.20;9.25;;;;;;;;;;5032979;28;20021;-73
2023/09/06 08:07:28;;;;;;;17.92;11.13;;;;;;;;;;5033180;28;20059;-74
2023/09/06 08:09:53;;;;;;;14.68;10.38;;;;;;;;;;5032698;28;20033;-74
2023/09/06 08:12:18;;;;;;;16.55;9.90;;;;;;;;;;5033492;28;20024;-74
2023/09/06 08:14:44;;;;;;;14.75;8.73;;;;;;;;;;5065088;28;20029;-74
2023/09/06 08:17:10;;;;;;;16.77;9.90;;;;;;;;;;5033467;28;20410;-74
2023/09/06 08:19:35;;;;;;;18.70;11.05;;;;;;;;;;5029062;28;20022;-74
2023/09/06 08:22:00;;;;;;;18.48;10.18;;;;;;;;;;5022402;28;20483;-74
2023/09/06 08:24:26;;;;;;;14.98;9.15;;;;;;;;;;5013526;28;20108;-74
2023/09/06 08:26:51;;;;;;;12.77;10.00;;;;;;;;;;5011758;28;20502;-74
2023/09/06 08:29:16;;;;;;;12.98;7.65;;;;;;;;;;5012299;28;20026;-74
2023/09/06 08:31:42;;;;;;;12.15;7.30;;;;;;;;;;5013615;28;20052;-73
2023/09/06 08:34:07;;;;;;;12.70;6.95;;;;;;;;;;5024687;28;20025;-73
2023/09/06 08:36:33;;;;;;;10.65;5.63;;;;;;;;;;5065468;28;20065;-73
2023/09/06 08:38:58;;;;;;;10.63;6.55;;;;;;;;;;5032499;28;20021;-73
2023/09/06 08:41:26;;;;;;;12.80;6.13;;;;;;;;;;5032541;28;20513;-73
2023/09/06 08:43:51;;;;;;;10.32;6.55;;;;;;;;;;5064599;28;20108;-73
2023/09/06 08:46:22;;;;;;;11.50;6.95;;;;;;;;;;5048751;28;20060;-73
2023/09/06 08:48:48;;;;;;;11.30;6.88;;;;;;;;;;5064194;28;20079;-73
2023/09/06 08:51:14;;;;;;;8.48;5.68;;;;;;;;;;5064798;28;20017;-73
2023/09/06 08:53:42;;;;;;;10.82;6.07;;;;;;;;;;5028315;28;20475;-74
2023/09/06 08:56:08;;;;;;;9.18;5.55;;;;;;;;;;5011818;28;20034;-75
2023/09/06 08:58:36;;;;;;;8.43;5.32;;;;;;;;;;5015059;28;20036;-75
2023/09/06 09:01:03;;;;;;;9.43;5.63;;;;;;;;;;5011312;28;20472;-74
2023/09/06 09:03:29;;;;;;;8.52;5.70;;;;;;;;;;5054683;28;20022;-75
2023/09/06 09:05:57;;;;;;;10.93;7.25;;;;;;;;;;5031767;28;20421;-75
2023/09/06 09:08:22;;;;;;;7.60;4.93;;;;;;;;;;5047377;28;20032;-76
2023/09/06 09:11:12;;;;;;;7.20;4.05;;;;;;;;;;4995397;28;20018;-75
2023/09/06 09:13:38;;;;;;;7.22;4.50;;;;;;;;;;5012722;28;20049;-75
2023/09/06 09:16:11;;;;;;;6.63;4.75;;;;;;;;;;5016790;28;20072;-75
2023/09/06 09:18:37;;;;;;;7.28;5.18;;;;;;;;;;5031757;28;20431;-74
2023/09/06 09:21:05;;;;;;;5.60;4.32;;;;;;;;;;5033496;28;20031;-75
2023/09/06 09:23:32;;;;;;;5.78;3.97;;;;;;;;;;5035119;28;20029;-76
2023/09/06 09:25:57;;;;;;;8.15;4.40;;;;;;;;;;5035880;28;20087;-75
2023/09/06 09:28:23;;;;;;;6.25;4.28;;;;;;;;;;5034085;28;20021;-74
2023/09/06 09:30:49;;;;;;;6.15;4.47;;;;;;;;;;5068155;28;20024;-74
2023/09/06 09:33:14;;;;;;;9.10;4.30;;;;;;;;;;5034735;28;20112;-74
2023/09/06 09:35:40;;;;;;;9.55;5.13;;;;;;;;;;5036162;28;20030;-74
2023/09/06 09:38:10;;;;;;;6.10;3.97;;;;;;;;;;5034515;28;20029;-75
2023/09/06 09:40:36;;;;;;;6.00;3.70;;;;;;;;;;5033972;28;20017;-74
2023/09/06 09:43:02;;;;;;;6.72;3.42;;;;;;;;;;5067455;28;20030;-74
2023/09/06 09:45:31;;;;;;;5.78;3.80;;;;;;;;;;5034762;28;20525;-74
2023/09/06 09:47:57;;;;;;;7.22;3.70;;;;;;;;;;5034993;28;20112;-74
2023/09/06 09:50:25;;;;;;;6.72;3.53;;;;;;;;;;5034598;28;20033;-74
2023/09/06 09:52:51;;;;;;;8.63;3.83;;;;;;;;;;5035745;28;20167;-74
2023/09/06 09:55:20;;;;;;;4.88;3.17;;;;;;;;;;5067443;28;20064;-74
2023/09/06 09:57:46;;;;;;;6.60;4.50;;;;;;;;;;5033756;28;20398;-74
2023/09/06 10:00:13;;;;;;;7.47;3.55;;;;;;;;;;5033816;28;20025;-75
2023/09/06 10:02:40;;;;;;;5.18;4.25;;;;;;;;;;5035413;28;20371;-75
2023/09/06 10:05:08;;;;;;;5.00;3.80;;;;;;;;;;5034192;28;20108;-75
2023/09/06 10:07:34;;;;;;;5.65;3.63;;;;;;;;;;5034288;28;20030;-74
2023/09/06 10:09:59;;;;;;;4.90;3.45;;;;;;;;;;5017175;28;20037;-74
2023/09/06 10:12:26;;;;;;;5.25;3.20;;;;;;;;;;5034550;28;20029;-74
2023/09/06 10:14:52;;;;;;;5.22;3.30;;;;;;;;;;5034269;28;20112;-73
2023/09/06 10:17:17;;;;;;;6.50;3.67;;;;;;;;;;5035417;28;20100;-74
2023/09/06 10:19:42;;;;;;;6.07;3.65;;;;;;;;;;5035187;28;20028;-74
2023/09/06 10:22:11;;;;;;;4.82;3.50;;;;;;;;;;5033226;28;20113;-73
2023/09/06 10:24:38;;;;;;;4.60;3.30;;;;;;;;;;5029851;28;20048;-74
2023/09/06 10:27:09;;;;;;;5.30;3.63;;;;;;;;;;5016263;28;20087;-76
2023/09/06 10:29:49;;;;;;;7.47;4.00;;;;;;;;;;5047528;28;20072;-75
2023/09/06 10:32:19;;;;;;;6.88;3.50;;;;;;;;;;5031978;28;20029;-76
2023/09/06 10:34:49;;;;;;;5.68;3.60;;;;;;;;;;5015060;28;20029;-75
2023/09/06 10:37:15;;;;;;;4.43;3.33;;;;;;;;;;5032535;28;20053;-75
2023/09/06 10:39:53;;;;;;;4.70;3.38;;;;;;;;;;5032975;28;20072;-76
2023/09/06 10:42:19;;;;;;;5.82;3.25;;;;;;;;;;5033820;28;20056;-76
2023/09/06 10:44:53;;;;;;;6.18;3.38;;;;;;;;;;5033159;28;20021;-74
2023/09/06 10:47:26;;;;;;;7.72;4.13;;;;;;;;;;5033461;28;20426;-75
2023/09/06 10:50:07;;;;;;;5.75;3.72;;;;;;;;;;5033716;28;20494;-75
2023/09/06 10:52:48;;;;;;;6.88;3.88;;;;;;;;;;5027646;28;20371;-75
2023/09/06 10:55:16;;;;;;;7.10;3.53;;;;;;;;;;5060893;28;20035;-75
2023/09/06 10:58:00;;;;;;;5.18;4.05;;;;;;;;;;5033842;28;20088;-76
2023/09/06 11:00:34;;;;;;;8.02;3.75;;;;;;;;;;5029423;28;20108;-76
2023/09/06 11:03:19;;;;;;;5.13;3.58;;;;;;;;;;5032744;28;20033;-76
2023/09/06 11:05:52;;;;;;;8.45;3.58;;;;;;;;;;5032752;28;20108;-76
2023/09/06 11:08:29;;;;;;;4.60;3.00;;;;;;;;;;5033356;28;20021;-76
2023/09/06 11:11:07;;;;;;;5.50;3.97;;;;;;;;;;5033641;28;20021;-76
2023/09/06 11:13:33;;;;;;;5.45;3.72;;;;;;;;;;5046558;28;20060;-75
2023/09/06 11:16:03;;;;;;;5.20;3.40;;;;;;;;;;5065540;28;20033;-76
2023/09/06 11:18:29;;;;;;;4.97;3.78;;;;;;;;;;5049125;28;20109;-74
2023/09/06 11:20:54;;;;;;;7.00;3.35;;;;;;;;;;5032610;28;20116;-75
2023/09/06 11:23:21;;;;;;;6.30;3.25;;;;;;;;;;5032677;28;20037;-75
2023/09/06 11:25:53;;;;;;;7.63;3.75;;;;;;;;;;5033443;28;20021;-75
2023/09/06 11:28:19;;;;;;;6.55;3.30;;;;;;;;;;5032777;28;20502;-75
2023/09/06 11:30:49;;;;;;;3.92;3.25;;;;;;;;;;5029677;28;20169;-75
2023/09/06 11:33:16;;;;;;;6.05;3.65;;;;;;;;;;5024469;28;20060;-75
2023/09/06 11:35:51;;;;;;;7.10;4.32;;;;;;;;;;5026101;28;20017;-76
2023/09/06 11:38:20;;;;;;;5.57;3.95;;;;;;;;;;5033824;28;20078;-76
2023/09/06 11:40:45;;;;;;;5.72;3.33;;;;;;;;;;5033731;28;20036;-75
2023/09/06 11:43:13;;;;;;;4.88;3.20;;;;;;;;;;5031637;28;20018;-75
2023/09/06 11:45:43;;;;;;;5.53;3.20;;;;;;;;;;5024733;28;20025;-76
2023/09/06 11:48:09;;;;;;;5.78;3.42;;;;;;;;;;5032051;28;20036;-76
2023/09/06 11:50:36;;;;;;;4.93;3.35;;;;;;;;;;5033649;28;20040;-75
2023/09/06 11:53:04;;;;;;;3.72;2.97;;;;;;;;;;5032347;28;20033;-75
2023/09/06 11:55:33;;;;;;;5.57;3.10;;;;;;;;;;5032512;28;20025;-76
2023/09/06 11:57:58;;;;;;;6.18;3.55;;;;;;;;;;5033424;28;20029;-75
2023/09/06 12:00:36;;;;;;;5.07;3.50;;;;;;;;;;5031904;28;20028;-76
2023/09/06 12:03:07;;;;;;;6.50;3.85;;;;;;;;;;5033621;28;20056;-75
2023/09/06 12:05:36;;;;;;;6.25;3.42;;;;;;;;;;5033524;28;20034;-75
2023/09/06 12:08:01;;;;;;;6.50;3.70;;;;;;;;;;5032229;28;20028;-75
2023/09/06 12:10:29;;;;;;;4.25;3.58;;;;;;;;;;5030148;28;20021;-76
2023/09/06 12:12:56;;;;;;;5.68;4.35;;;;;;;;;;5012544;28;20022;-75
2023/09/06 12:15:25;;;;;;;8.07;3.67;;;;;;;;;;5044750;28;20109;-76
2023/09/06 12:17:50;;;;;;;6.47;3.50;;;;;;;;;;5026192;28;20452;-75
2023/09/06 12:20:22;;;;;;;6.07;4.57;;;;;;;;;;5011650;28;20076;-76
2023/09/06 12:22:48;;;;;;;4.13;3.05;;;;;;;;;;5013629;28;20038;-76
2023/09/06 12:25:18;;;;;;;5.50;3.10;;;;;;;;;;5013807;28;20034;-76
2023/09/06 12:27:43;;;;;;;7.45;3.67;;;;;;;;;;5012393;28;20037;-76
2023/09/06 12:30:12;;;;;;;5.43;3.70;;;;;;;;;;5016130;28;20013;-76
2023/09/06 12:32:40;;;;;;;3.75;3.20;;;;;;;;;;5034070;28;20486;-75
2023/09/06 12:35:07;;;;;;;5.53;3.45;;;;;;;;;;5060357;23;20101;-75
2023/09/06 12:37:36;;;;;;;5.40;3.58;;;;;;;;;;5033372;28;20056;-75
2023/09/06 12:40:10;;;;;;;4.93;3.33;;;;;;;;;;5031308;28;20429;-75
2023/09/06 12:42:41;;;;;;;4.57;3.65;;;;;;;;;;5033932;28;20026;-75
2023/09/06 12:45:07;;;;;;;7.00;3.70;;;;;;;;;;5048577;28;20021;-75
2023/09/06 12:47:34;;;;;;;4.47;3.30;;;;;;;;;;5033632;28;20033;-75
2023/09/06 12:50:01;;;;;;;5.07;4.13;;;;;;;;;;5052639;28;20363;-75
2023/09/06 12:52:26;;;;;;;6.97;3.47;;;;;;;;;;5016204;28;20029;-76
2023/09/06 12:54:52;;;;;;;5.47;3.85;;;;;;;;;;5016405;28;20083;-77
2023/09/06 12:57:17;;;;;;;6.28;3.58;;;;;;;;;;5050908;28;20029;-77
2023/09/06 12:59:42;;;;;;;6.20;3.47;;;;;;;;;;5036346;28;20117;-77
2023/09/06 13:02:08;;;;;;;4.93;3.40;;;;;;;;;;5036159;28;20037;-76
2023/09/06 13:04:33;;;;;;;7.05;3.70;;;;;;;;;;5014833;28;20030;-75
2023/09/06 13:06:58;;;;;;;6.82;3.40;;;;;;;;;;5016843;28;20451;-75
2023/09/06 13:09:23;;;;;;;4.53;3.35;;;;;;;;;;5021446;28;20026;-76
2023/09/06 13:11:49;;;;;;;4.88;3.15;;;;;;;;;;5015786;28;20045;-75
2023/09/06 13:14:15;;;;;;;5.38;3.22;;;;;;;;;;5017533;28;20115;-75
2023/09/06 13:16:41;;;;;;;4.72;3.45;;;;;;;;;;5015770;28;20022;-75
2023/09/06 13:19:06;;;;;;;5.53;3.60;;;;;;;;;;5015465;28;20026;-75
2023/09/06 13:21:31;;;;;;;5.20;3.55;;;;;;;;;;5034215;28;20026;-75
2023/09/06 13:23:57;;;;;;;5.20;3.40;;;;;;;;;;5036562;28;20025;-75
2023/09/06 13:26:22;;;;;;;4.10;3.17;;;;;;;;;;5036782;28;20025;-75
2023/09/06 13:28:47;;;;;;;4.30;3.13;;;;;;;;;;5036609;28;20021;-76
2023/09/06 13:31:13;;;;;;;4.20;3.13;;;;;;;;;;5036518;28;20026;-75
2023/09/06 13:33:38;;;;;;;5.22;3.22;;;;;;;;;;5037334;28;20056;-75
2023/09/06 13:36:04;;;;;;;4.75;3.28;;;;;;;;;;5035050;28;20079;-75
2023/09/06 13:38:30;;;;;;;4.95;3.30;;;;;;;;;;5035812;28;20045;-75
2023/09/06 13:40:56;;;;;;;6.50;3.53;;;;;;;;;;5036560;28;20506;-75
2023/09/06 13:43:22;;;;;;;4.82;3.47;;;;;;;;;;5035528;28;20037;-75
2023/09/06 13:45:47;;;;;;;5.25;3.10;;;;;;;;;;5036184;28;20036;-75
2023/09/06 13:48:14;;;;;;;4.65;3.72;;;;;;;;;;5037041;28;20038;-75
2023/09/06 13:50:39;;;;;;;5.93;3.83;;;;;;;;;;5037185;28;20028;-75
2023/09/06 13:53:05;;;;;;;5.47;3.20;;;;;;;;;;5037649;28;20025;-75
2023/09/06 13:55:31;;;;;;;5.13;3.33;;;;;;;;;;5036352;28;20025;-75
2023/09/06 13:57:56;;;;;;;4.22;3.15;;;;;;;;;;5036693;28;20433;-75
2023/09/06 14:00:22;;;;;;;6.13;3.50;;;;;;;;;;5036170;28;20033;-75
2023/09/06 14:02:47;;;;;;;5.22;3.40;;;;;;;;;;5036257;28;20529;-75
2023/09/06 14:05:13;;;;;;;6.93;3.42;;;;;;;;;;5036989;28;20067;-75
2023/09/06 14:07:38;;;;;;;5.40;3.45;;;;;;;;;;5019982;28;20044;-75
2023/09/06 14:10:04;;;;;;;6.60;3.78;;;;;;;;;;5037589;28;20032;-75
2023/09/06 14:12:29;;;;;;;6.85;4.90;;;;;;;;;;5036502;28;20060;-75
2023/09/06 14:14:56;;;;;;;4.20;3.25;;;;;;;;;;5035170;28;20471;-74
2023/09/06 14:17:22;;;;;;;5.13;3.55;;;;;;;;;;5036051;28;20048;-75
2023/09/06 14:19:47;;;;;;;4.82;3.78;;;;;;;;;;5034601;28;20470;-75
2023/09/06 14:22:12;;;;;;;4.70;3.78;;;;;;;;;;5034554;28;20026;-75
2023/09/06 14:24:38;;;;;;;5.70;3.67;;;;;;;;;;5018115;28;20394;-75
2023/09/06 14:27:03;;;;;;;6.03;3.72;;;;;;;;;;5034522;28;20022;-75
2023/09/06 14:29:29;;;;;;;4.45;3.03;;;;;;;;;;5051057;28;20032;-75
2023/09/06 14:31:56;;;;;;;4.65;3.47;;;;;;;;;;5036415;28;20012;-75
2023/09/06 14:34:21;;;;;;;4.68;3.47;;;;;;;;;;5034152;28;20490;-75
2023/09/06 14:36:47;;;;;;;5.90;3.72;;;;;;;;;;5050812;28;20036;-75
2023/09/06 14:39:12;;;;;;;5.40;3.53;;;;;;;;;;5034744;28;20040;-75
2023/09/06 14:41:37;;;;;;;4.80;3.40;;;;;;;;;;5035228;28;20483;-76
2023/09/06 14:44:03;;;;;;;6.43;3.78;;;;;;;;;;5034691;28;20021;-75
2023/09/06 14:46:28;;;;;;;5.18;4.00;;;;;;;;;;5033981;28;20119;-75
2023/09/06 14:48:53;;;;;;;7.93;4.32;;;;;;;;;;5033921;28;20501;-75
2023/09/06 14:51:19;;;;;;;8.10;4.20;;;;;;;;;;5033799;28;20033;-75
2023/09/06 14:53:44;;;;;;;9.10;4.57;;;;;;;;;;5033968;28;20029;-75
2023/09/06 14:56:09;;;;;;;9.13;4.55;;;;;;;;;;5033930;28;20025;-75